createdAt,value
2023-04-01T00:06:12.530Z,2.70
2023-04-01T00:16:20.833Z,2.90
2023-04-01T00:26:11.781Z,2.30
2023-04-01T00:36:11.564Z,1.90
2023-04-01T00:46:10.823Z,2.00
2023-04-01T00:56:10.867Z,1.80
2023-04-01T01:06:10.111Z,1.70
2023-04-01T01:16:10.067Z,1.80
2023-04-01T01:26:09.344Z,1.70
2023-04-01T01:36:09.065Z,3.00
2023-04-01T01:46:08.717Z,2.10
2023-04-01T01:56:08.466Z,2.10
2023-04-01T02:06:08.237Z,2.30
2023-04-01T02:16:07.661Z,1.80
2023-04-01T02:26:07.463Z,1.80
2023-04-01T02:36:06.798Z,1.70
2023-04-01T02:46:06.439Z,1.80
2023-04-01T02:56:06.114Z,1.50
2023-04-01T03:06:00.444Z,1.70
2023-04-01T03:16:01.264Z,1.60
2023-04-01T03:25:59.871Z,2.50
2023-04-01T03:35:59.678Z,3.40
2023-04-01T03:45:59.163Z,2.00
2023-04-01T03:55:58.657Z,1.80
2023-04-01T04:05:58.586Z,2.10
2023-04-01T04:15:57.917Z,2.80
2023-04-01T04:25:57.534Z,2.10
2023-04-01T04:35:57.168Z,2.10
2023-04-01T04:45:56.962Z,2.60
2023-04-01T04:55:56.437Z,2.20
2023-04-01T05:05:56.090Z,2.20
2023-04-01T05:15:55.715Z,2.60
2023-04-01T05:25:55.341Z,2.20
2023-04-01T05:35:54.977Z,2.10
2023-04-01T05:45:54.767Z,1.80
2023-04-01T05:55:54.405Z,2.10
2023-04-01T06:05:53.961Z,1.80
2023-04-01T06:15:54.149Z,2.10
2023-04-01T06:25:53.150Z,2.10
2023-04-01T06:35:53.128Z,2.30
2023-04-01T06:45:52.540Z,2.10
2023-04-01T06:55:52.191Z,2.20
2023-04-01T07:05:51.682Z,2.20
2023-04-01T07:15:51.289Z,2.30
2023-04-01T07:25:51.033Z,2.20
2023-04-01T07:35:50.587Z,2.20
2023-04-01T07:45:50.233Z,2.10
2023-04-01T07:55:49.797Z,2.50
2023-04-01T08:05:49.461Z,3.10
2023-04-01T08:15:49.229Z,2.40
2023-04-01T08:25:50.045Z,3.40
2023-04-01T08:35:48.360Z,2.80
2023-04-01T08:45:47.993Z,2.40
2023-04-01T08:55:49.637Z,2.30
2023-04-01T09:05:47.226Z,2.40
2023-04-01T09:15:41.805Z,1.80
2023-04-01T09:25:41.386Z,2.20
2023-04-01T09:35:41.206Z,2.30
2023-04-01T09:45:40.845Z,2.80
2023-04-01T09:55:40.471Z,2.50
2023-04-01T10:05:39.939Z,3.10
2023-04-01T10:15:39.564Z,2.80
2023-04-01T10:25:39.170Z,3.40
2023-04-01T10:35:38.896Z,4.10
2023-04-01T10:45:38.577Z,4.70
2023-04-01T10:55:38.267Z,6.10
2023-04-01T11:05:37.710Z,5.00
2023-04-01T11:15:37.532Z,3.20
2023-04-01T11:25:37.022Z,3.20
2023-04-01T11:35:36.786Z,2.20
2023-04-01T11:45:36.279Z,1.90
2023-04-01T11:55:36.081Z,2.90
2023-04-01T12:05:35.892Z,2.80
2023-04-01T12:15:36.021Z,4.30
2023-04-01T12:25:35.009Z,4.90
2023-04-01T12:35:37.239Z,7.20
2023-04-01T12:45:34.454Z,7.40
2023-04-01T12:55:33.850Z,7.70
2023-04-01T13:05:33.532Z,6.50
2023-04-01T13:15:32.995Z,7.80
2023-04-01T13:25:32.631Z,7.80
2023-04-01T13:35:32.236Z,6.40
2023-04-01T13:45:31.917Z,6.60
2023-04-01T13:55:31.632Z,5.50
2023-04-01T14:05:40.041Z,6.60
2023-04-01T14:15:30.771Z,5.50
2023-04-01T14:25:30.595Z,7.60
2023-04-01T14:35:30.095Z,4.70
2023-04-01T14:45:29.723Z,6.10
2023-04-01T14:55:29.476Z,3.80
2023-04-01T15:05:28.970Z,6.00
2023-04-01T15:15:28.656Z,7.10
2023-04-01T15:25:28.231Z,7.20
2023-04-01T15:35:28.053Z,5.30
2023-04-01T15:45:27.497Z,6.30
2023-04-01T15:55:27.155Z,6.70
2023-04-01T16:05:26.805Z,5.90
2023-04-01T16:15:26.416Z,6.20
2023-04-01T16:25:26.044Z,9.10
2023-04-01T16:35:25.854Z,7.40
2023-04-01T16:45:25.322Z,6.30
2023-04-01T16:55:24.979Z,4.90
2023-04-01T17:05:24.580Z,4.50
2023-04-01T17:15:24.376Z,5.80
2023-04-01T17:25:23.868Z,6.00
2023-04-01T17:35:23.528Z,6.30
2023-04-01T17:45:24.815Z,5.00
2023-04-01T17:55:22.915Z,3.60
2023-04-01T18:05:22.569Z,6.30
2023-04-01T18:15:22.070Z,5.10
2023-04-01T18:25:21.682Z,8.50
2023-04-01T18:35:21.472Z,8.80
2023-04-01T18:45:21.959Z,8.00
2023-04-01T18:55:20.587Z,6.10
2023-04-01T19:05:20.376Z,6.10
2023-04-01T19:15:21.896Z,6.00
2023-04-01T19:25:19.658Z,6.10
2023-04-01T19:35:19.110Z,7.10
2023-04-01T19:45:18.772Z,6.30
2023-04-01T19:55:13.454Z,6.60
2023-04-01T20:05:13.130Z,7.30
2023-04-01T20:15:12.731Z,7.40
2023-04-01T20:25:12.417Z,7.10
2023-04-01T20:35:11.849Z,5.10
2023-04-01T20:45:11.652Z,5.20
2023-04-01T20:55:11.264Z,4.60
2023-04-01T21:05:10.755Z,5.80
2023-04-01T21:15:10.411Z,6.00
2023-04-01T21:25:10.243Z,6.80
2023-04-01T21:35:10.458Z,6.30
2023-04-01T21:45:09.291Z,5.30
2023-04-01T21:55:09.410Z,7.40
2023-04-01T22:05:08.573Z,5.80
2023-04-01T22:15:08.397Z,6.50
2023-04-01T22:25:07.857Z,5.70
2023-04-01T22:35:07.652Z,9.20
2023-04-01T22:45:07.262Z,9.80
2023-04-01T22:55:07.092Z,8.50
2023-04-01T23:05:06.441Z,8.70
2023-04-01T23:15:06.064Z,8.00
2023-04-01T23:25:05.704Z,7.90
2023-04-01T23:35:05.351Z,2.20
2023-04-01T23:45:04.986Z,2.40
2023-04-01T23:55:04.842Z,3.60
